sensor_id;sensor_type;location;lat;lon;timestamp;P1;durP1;ratioP1;P2;durP2;ratioP2
76536;SDS011;65381;51.254;15.592;2023-11-18T00:00:24;0.10;;;0.10;;
76536;SDS011;65381;51.254;15.592;2023-11-18T00:03:11;0.00;;;0.00;;
76536;SDS011;65381;51.254;15.592;2023-11-18T00:05:39;0.00;;;0.00;;
76536;SDS011;65381;51.254;15.592;2023-11-18T00:08:08;0.00;;;0.00;;
76536;SDS011;65381;51.254;15.592;2023-11-18T00:10:35;0.10;;;0.10;;
76536;SDS011;65381;51.254;15.592;2023-11-18T00:13:04;0.00;;;0.00;;
76536;SDS011;65381;51.254;15.592;2023-11-18T00:15:32;0.00;;;0.00;;
76536;SDS011;65381;51.254;15.592;2023-11-18T00:18:02;0.00;;;0.00;;
76536;SDS011;65381;51.254;15.592;2023-11-18T00:20:32;0.00;;;0.00;;
76536;SDS011;65381;51.254;15.592;2023-11-18T00:23:00;0.10;;;0.10;;
76536;SDS011;65381;51.254;15.592;2023-11-18T00:25:28;0.00;;;0.00;;
76536;SDS011;65381;51.254;15.592;2023-11-18T00:27:58;0.00;;;0.00;;
76536;SDS011;65381;51.254;15.592;2023-11-18T00:30:26;0.10;;;0.10;;
76536;SDS011;65381;51.254;15.592;2023-11-18T00:32:55;0.00;;;0.00;;
76536;SDS011;65381;51.254;15.592;2023-11-18T00:35:25;0.10;;;0.10;;
76536;SDS011;65381;51.254;15.592;2023-11-18T00:37:53;0.10;;;0.10;;
76536;SDS011;65381;51.254;15.592;2023-11-18T00:40:21;0.00;;;0.00;;
76536;SDS011;65381;51.254;15.592;2023-11-18T00:42:50;0.00;;;0.00;;
76536;SDS011;65381;51.254;15.592;2023-11-18T00:45:18;0.00;;;0.00;;
76536;SDS011;65381;51.254;15.592;2023-11-18T00:47:46;0.00;;;0.00;;
76536;SDS011;65381;51.254;15.592;2023-11-18T00:50:14;0.00;;;0.00;;
76536;SDS011;65381;51.254;15.592;2023-11-18T00:52:42;0.00;;;0.00;;
76536;SDS011;65381;51.254;15.592;2023-11-18T00:55:10;0.00;;;0.00;;
76536;SDS011;65381;51.254;15.592;2023-11-18T00:57:38;0.00;;;0.00;;
76536;SDS011;65381;51.254;15.592;2023-11-18T01:00:07;0.00;;;0.00;;
76536;SDS011;65381;51.254;15.592;2023-11-18T01:02:42;0.10;;;0.10;;
76536;SDS011;65381;51.254;15.592;2023-11-18T01:05:10;0.00;;;0.00;;
76536;SDS011;65381;51.254;15.592;2023-11-18T01:07:39;0.00;;;0.00;;
76536;SDS011;65381;51.254;15.592;2023-11-18T01:10:11;0.00;;;0.00;;
76536;SDS011;65381;51.254;15.592;2023-11-18T01:12:41;0.00;;;0.00;;
76536;SDS011;65381;51.254;15.592;2023-11-18T01:15:12;0.00;;;0.00;;
76536;SDS011;65381;51.254;15.592;2023-11-18T01:17:41;0.00;;;0.00;;
76536;SDS011;65381;51.254;15.592;2023-11-18T01:20:10;0.00;;;0.00;;
76536;SDS011;65381;51.254;15.592;2023-11-18T01:22:41;0.00;;;0.00;;
76536;SDS011;65381;51.254;15.592;2023-11-18T01:25:11;0.22;;;0.17;;
76536;SDS011;65381;51.254;15.592;2023-11-18T01:27:40;0.00;;;0.00;;
76536;SDS011;65381;51.254;15.592;2023-11-18T01:30:08;0.00;;;0.00;;
76536;SDS011;65381;51.254;15.592;2023-11-18T01:32:37;0.03;;;0.03;;
76536;SDS011;65381;51.254;15.592;2023-11-18T01:35:08;0.10;;;0.10;;
76536;SDS011;65381;51.254;15.592;2023-11-18T01:37:40;0.22;;;0.20;;
76536;SDS011;65381;51.254;15.592;2023-11-18T01:40:08;0.00;;;0.00;;
76536;SDS011;65381;51.254;15.592;2023-11-18T01:42:41;0.00;;;0.00;;
76536;SDS011;65381;51.254;15.592;2023-11-18T01:45:10;0.05;;;0.05;;
76536;SDS011;65381;51.254;15.592;2023-11-18T01:47:39;0.00;;;0.00;;
76536;SDS011;65381;51.254;15.592;2023-11-18T01:50:09;0.00;;;0.00;;
76536;SDS011;65381;51.254;15.592;2023-11-18T01:55:12;0.00;;;0.00;;
76536;SDS011;65381;51.254;15.592;2023-11-18T01:57:41;0.00;;;0.00;;
76536;SDS011;65381;51.254;15.592;2023-11-18T02:00:11;0.10;;;0.10;;
76536;SDS011;65381;51.254;15.592;2023-11-18T02:02:41;0.00;;;0.00;;
76536;SDS011;65381;51.254;15.592;2023-11-18T02:05:11;0.00;;;0.00;;
76536;SDS011;65381;51.254;15.592;2023-11-18T02:07:40;0.00;;;0.00;;
76536;SDS011;65381;51.254;15.592;2023-11-18T02:10:08;0.03;;;0.03;;
76536;SDS011;65381;51.254;15.592;2023-11-18T02:15:18;0.00;;;0.00;;
76536;SDS011;65381;51.254;15.592;2023-11-18T02:17:48;0.00;;;0.00;;
76536;SDS011;65381;51.254;15.592;2023-11-18T02:20:17;0.00;;;0.00;;
76536;SDS011;65381;51.254;15.592;2023-11-18T02:22:48;0.00;;;0.00;;
76536;SDS011;65381;51.254;15.592;2023-11-18T02:25:17;0.40;;;0.30;;
76536;SDS011;65381;51.254;15.592;2023-11-18T02:27:46;0.10;;;0.10;;
76536;SDS011;65381;51.254;15.592;2023-11-18T02:32:48;0.10;;;0.10;;
76536;SDS011;65381;51.254;15.592;2023-11-18T02:35:24;0.10;;;0.10;;
76536;SDS011;65381;51.254;15.592;2023-11-18T02:37:57;0.00;;;0.00;;
76536;SDS011;65381;51.254;15.592;2023-11-18T02:40:35;0.47;;;0.47;;
76536;SDS011;65381;51.254;15.592;2023-11-18T02:43:05;0.00;;;0.00;;
76536;SDS011;65381;51.254;15.592;2023-11-18T02:45:34;0.00;;;0.00;;
76536;SDS011;65381;51.254;15.592;2023-11-18T02:48:04;0.00;;;0.00;;
76536;SDS011;65381;51.254;15.592;2023-11-18T02:50:34;0.08;;;0.08;;
76536;SDS011;65381;51.254;15.592;2023-11-18T02:53:09;0.00;;;0.00;;
76536;SDS011;65381;51.254;15.592;2023-11-18T02:55:37;0.00;;;0.00;;
76536;SDS011;65381;51.254;15.592;2023-11-18T02:58:05;0.00;;;0.00;;
76536;SDS011;65381;51.254;15.592;2023-11-18T03:00:34;0.00;;;0.00;;
76536;SDS011;65381;51.254;15.592;2023-11-18T03:03:02;0.00;;;0.00;;
76536;SDS011;65381;51.254;15.592;2023-11-18T03:05:30;0.00;;;0.00;;
76536;SDS011;65381;51.254;15.592;2023-11-18T03:08:00;0.00;;;0.00;;
76536;SDS011;65381;51.254;15.592;2023-11-18T03:10:28;0.55;;;0.47;;
76536;SDS011;65381;51.254;15.592;2023-11-18T03:12:57;0.30;;;0.30;;
76536;SDS011;65381;51.254;15.592;2023-11-18T03:15:25;0.00;;;0.00;;
76536;SDS011;65381;51.254;15.592;2023-11-18T03:17:54;0.00;;;0.00;;
76536;SDS011;65381;51.254;15.592;2023-11-18T03:20:22;0.03;;;0.03;;
76536;SDS011;65381;51.254;15.592;2023-11-18T03:22:51;0.00;;;0.00;;
76536;SDS011;65381;51.254;15.592;2023-11-18T03:25:20;0.00;;;0.00;;
76536;SDS011;65381;51.254;15.592;2023-11-18T03:30:21;0.00;;;0.00;;
76536;SDS011;65381;51.254;15.592;2023-11-18T03:32:50;2.33;;;0.45;;
76536;SDS011;65381;51.254;15.592;2023-11-18T03:35:18;0.00;;;0.00;;
76536;SDS011;65381;51.254;15.592;2023-11-18T03:37:46;0.00;;;0.00;;
76536;SDS011;65381;51.254;15.592;2023-11-18T03:40:14;0.10;;;0.10;;
76536;SDS011;65381;51.254;15.592;2023-11-18T03:42:43;0.00;;;0.00;;
76536;SDS011;65381;51.254;15.592;2023-11-18T03:45:14;0.00;;;0.00;;
76536;SDS011;65381;51.254;15.592;2023-11-18T03:47:42;0.00;;;0.00;;
76536;SDS011;65381;51.254;15.592;2023-11-18T03:50:10;0.43;;;0.43;;
76536;SDS011;65381;51.254;15.592;2023-11-18T03:52:41;0.10;;;0.10;;
76536;SDS011;65381;51.254;15.592;2023-11-18T03:55:09;0.00;;;0.00;;
76536;SDS011;65381;51.254;15.592;2023-11-18T03:57:39;0.00;;;0.00;;
76536;SDS011;65381;51.254;15.592;2023-11-18T04:00:07;0.00;;;0.00;;
76536;SDS011;65381;51.254;15.592;2023-11-18T04:02:39;0.00;;;0.00;;
76536;SDS011;65381;51.254;15.592;2023-11-18T04:05:08;0.08;;;0.08;;
76536;SDS011;65381;51.254;15.592;2023-11-18T04:07:36;0.00;;;0.00;;
76536;SDS011;65381;51.254;15.592;2023-11-18T04:10:04;0.00;;;0.00;;
76536;SDS011;65381;51.254;15.592;2023-11-18T04:12:34;0.00;;;0.00;;
76536;SDS011;65381;51.254;15.592;2023-11-18T04:15:02;0.00;;;0.00;;
76536;SDS011;65381;51.254;15.592;2023-11-18T04:17:32;0.00;;;0.00;;
76536;SDS011;65381;51.254;15.592;2023-11-18T04:20:01;0.00;;;0.00;;
76536;SDS011;65381;51.254;15.592;2023-11-18T04:22:32;0.00;;;0.00;;
76536;SDS011;65381;51.254;15.592;2023-11-18T04:25:00;0.25;;;0.25;;
76536;SDS011;65381;51.254;15.592;2023-11-18T04:27:28;0.00;;;0.00;;
76536;SDS011;65381;51.254;15.592;2023-11-18T04:29:56;1.85;;;1.23;;
76536;SDS011;65381;51.254;15.592;2023-11-18T04:32:25;0.10;;;0.10;;
76536;SDS011;65381;51.254;15.592;2023-11-18T04:34:53;0.52;;;0.52;;
76536;SDS011;65381;51.254;15.592;2023-11-18T04:37:21;0.00;;;0.00;;
76536;SDS011;65381;51.254;15.592;2023-11-18T04:39:49;0.00;;;0.00;;
76536;SDS011;65381;51.254;15.592;2023-11-18T04:42:17;0.00;;;0.00;;
76536;SDS011;65381;51.254;15.592;2023-11-18T04:44:45;0.00;;;0.00;;
76536;SDS011;65381;51.254;15.592;2023-11-18T04:47:13;0.00;;;0.00;;
76536;SDS011;65381;51.254;15.592;2023-11-18T04:49:41;0.28;;;0.28;;
76536;SDS011;65381;51.254;15.592;2023-11-18T04:52:10;0.08;;;0.08;;
76536;SDS011;65381;51.254;15.592;2023-11-18T04:54:38;0.00;;;0.00;;
76536;SDS011;65381;51.254;15.592;2023-11-18T04:57:06;0.10;;;0.10;;
76536;SDS011;65381;51.254;15.592;2023-11-18T04:59:36;0.00;;;0.00;;
76536;SDS011;65381;51.254;15.592;2023-11-18T05:02:04;0.10;;;0.10;;
76536;SDS011;65381;51.254;15.592;2023-11-18T05:04:33;0.10;;;0.10;;
76536;SDS011;65381;51.254;15.592;2023-11-18T05:07:01;0.00;;;0.00;;
76536;SDS011;65381;51.254;15.592;2023-11-18T05:09:30;1.10;;;1.10;;
76536;SDS011;65381;51.254;15.592;2023-11-18T05:11:59;0.00;;;0.00;;
76536;SDS011;65381;51.254;15.592;2023-11-18T05:14:29;0.65;;;0.65;;
76536;SDS011;65381;51.254;15.592;2023-11-18T05:19:32;0.17;;;0.13;;
76536;SDS011;65381;51.254;15.592;2023-11-18T05:22:00;0.52;;;0.52;;
76536;SDS011;65381;51.254;15.592;2023-11-18T05:24:28;0.63;;;0.63;;
76536;SDS011;65381;51.254;15.592;2023-11-18T05:26:56;0.00;;;0.00;;
76536;SDS011;65381;51.254;15.592;2023-11-18T05:29:24;0.00;;;0.00;;
76536;SDS011;65381;51.254;15.592;2023-11-18T05:31:53;0.00;;;0.00;;
76536;SDS011;65381;51.254;15.592;2023-11-18T05:34:24;0.00;;;0.00;;
76536;SDS011;65381;51.254;15.592;2023-11-18T05:36:53;0.10;;;0.10;;
76536;SDS011;65381;51.254;15.592;2023-11-18T05:39:21;0.10;;;0.10;;
76536;SDS011;65381;51.254;15.592;2023-11-18T05:41:51;0.00;;;0.00;;
76536;SDS011;65381;51.254;15.592;2023-11-18T05:44:20;0.10;;;0.10;;
76536;SDS011;65381;51.254;15.592;2023-11-18T05:46:57;0.00;;;0.00;;
76536;SDS011;65381;51.254;15.592;2023-11-18T05:49:25;0.00;;;0.00;;
76536;SDS011;65381;51.254;15.592;2023-11-18T05:51:53;0.00;;;0.00;;
76536;SDS011;65381;51.254;15.592;2023-11-18T05:54:21;0.03;;;0.03;;
76536;SDS011;65381;51.254;15.592;2023-11-18T05:56:50;0.10;;;0.10;;
76536;SDS011;65381;51.254;15.592;2023-11-18T05:59:19;0.00;;;0.00;;
76536;SDS011;65381;51.254;15.592;2023-11-18T06:01:49;0.00;;;0.00;;
76536;SDS011;65381;51.254;15.592;2023-11-18T06:04:18;0.05;;;0.05;;
76536;SDS011;65381;51.254;15.592;2023-11-18T06:06:46;0.00;;;0.00;;
76536;SDS011;65381;51.254;15.592;2023-11-18T06:09:14;0.00;;;0.00;;
76536;SDS011;65381;51.254;15.592;2023-11-18T06:11:49;0.10;;;0.10;;
76536;SDS011;65381;51.254;15.592;2023-11-18T06:14:16;0.00;;;0.00;;
76536;SDS011;65381;51.254;15.592;2023-11-18T06:16:45;0.10;;;0.10;;
76536;SDS011;65381;51.254;15.592;2023-11-18T06:19:17;0.00;;;0.00;;
76536;SDS011;65381;51.254;15.592;2023-11-18T06:21:46;0.00;;;0.00;;
76536;SDS011;65381;51.254;15.592;2023-11-18T06:24:13;0.00;;;0.00;;
76536;SDS011;65381;51.254;15.592;2023-11-18T06:26:42;16.60;;;13.35;;
76536;SDS011;65381;51.254;15.592;2023-11-18T06:29:10;0.55;;;0.08;;
76536;SDS011;65381;51.254;15.592;2023-11-18T06:31:42;0.00;;;0.00;;
76536;SDS011;65381;51.254;15.592;2023-11-18T06:34:09;0.17;;;0.03;;
76536;SDS011;65381;51.254;15.592;2023-11-18T06:36:40;0.10;;;0.00;;
76536;SDS011;65381;51.254;15.592;2023-11-18T06:39:08;1.60;;;1.10;;
76536;SDS011;65381;51.254;15.592;2023-11-18T06:41:36;2.67;;;1.27;;
76536;SDS011;65381;51.254;15.592;2023-11-18T06:44:17;5.28;;;3.30;;
76536;SDS011;65381;51.254;15.592;2023-11-18T06:46:51;1.75;;;0.43;;
76536;SDS011;65381;51.254;15.592;2023-11-18T06:49:19;20.85;;;15.02;;
76536;SDS011;65381;51.254;15.592;2023-11-18T06:51:48;3.95;;;3.17;;
76536;SDS011;65381;51.254;15.592;2023-11-18T06:54:18;1.25;;;0.32;;
76536;SDS011;65381;51.254;15.592;2023-11-18T06:56:47;1.13;;;0.20;;
76536;SDS011;65381;51.254;15.592;2023-11-18T06:59:19;114.22;;;104.03;;
76536;SDS011;65381;51.254;15.592;2023-11-18T07:01:48;13.80;;;11.68;;
76536;SDS011;65381;51.254;15.592;2023-11-18T07:04:16;72.90;;;65.32;;
76536;SDS011;65381;51.254;15.592;2023-11-18T07:06:44;50.45;;;45.75;;
76536;SDS011;65381;51.254;15.592;2023-11-18T07:09:12;93.88;;;84.40;;
76536;SDS011;65381;51.254;15.592;2023-11-18T07:11:46;12.95;;;6.93;;
76536;SDS011;65381;51.254;15.592;2023-11-18T07:14:15;1.13;;;0.65;;
76536;SDS011;65381;51.254;15.592;2023-11-18T07:16:45;1.15;;;0.25;;
76536;SDS011;65381;51.254;15.592;2023-11-18T07:19:13;0.90;;;0.20;;
76536;SDS011;65381;51.254;15.592;2023-11-18T07:21:49;3.75;;;2.63;;
76536;SDS011;65381;51.254;15.592;2023-11-18T07:24:21;1.23;;;0.30;;
76536;SDS011;65381;51.254;15.592;2023-11-18T07:26:50;1.02;;;0.28;;
76536;SDS011;65381;51.254;15.592;2023-11-18T07:29:19;1.27;;;0.85;;
76536;SDS011;65381;51.254;15.592;2023-11-18T07:31:48;0.90;;;0.10;;
76536;SDS011;65381;51.254;15.592;2023-11-18T07:34:16;0.55;;;0.10;;
76536;SDS011;65381;51.254;15.592;2023-11-18T07:36:45;0.98;;;0.10;;
76536;SDS011;65381;51.254;15.592;2023-11-18T07:39:14;1.83;;;0.30;;
76536;SDS011;65381;51.254;15.592;2023-11-18T07:41:43;0.30;;;0.10;;
76536;SDS011;65381;51.254;15.592;2023-11-18T07:44:12;0.40;;;0.20;;
76536;SDS011;65381;51.254;15.592;2023-11-18T07:46:43;0.65;;;0.45;;
76536;SDS011;65381;51.254;15.592;2023-11-18T07:49:11;1.30;;;0.80;;
76536;SDS011;65381;51.254;15.592;2023-11-18T07:51:40;1.38;;;0.40;;
76536;SDS011;65381;51.254;15.592;2023-11-18T07:54:09;3.25;;;0.60;;
76536;SDS011;65381;51.254;15.592;2023-11-18T07:56:38;3.00;;;0.43;;
76536;SDS011;65381;51.254;15.592;2023-11-18T07:59:08;2.33;;;0.43;;
76536;SDS011;65381;51.254;15.592;2023-11-18T08:01:40;5.30;;;0.93;;
76536;SDS011;65381;51.254;15.592;2023-11-18T08:04:14;91.47;;;81.45;;
76536;SDS011;65381;51.254;15.592;2023-11-18T08:06:43;10.35;;;7.85;;
76536;SDS011;65381;51.254;15.592;2023-11-18T08:09:11;24.02;;;21.38;;
76536;SDS011;65381;51.254;15.592;2023-11-18T08:11:41;205.48;;;185.88;;
76536;SDS011;65381;51.254;15.592;2023-11-18T08:14:09;187.93;;;168.52;;
76536;SDS011;65381;51.254;15.592;2023-11-18T08:16:38;49.00;;;44.05;;
76536;SDS011;65381;51.254;15.592;2023-11-18T08:19:06;10.20;;;7.82;;
76536;SDS011;65381;51.254;15.592;2023-11-18T08:21:35;5.07;;;0.68;;
76536;SDS011;65381;51.254;15.592;2023-11-18T08:24:06;2.85;;;1.45;;
76536;SDS011;65381;51.254;15.592;2023-11-18T08:26:36;3.83;;;0.88;;
76536;SDS011;65381;51.254;15.592;2023-11-18T08:29:04;3.45;;;0.68;;
76536;SDS011;65381;51.254;15.592;2023-11-18T08:31:34;5.00;;;1.73;;
76536;SDS011;65381;51.254;15.592;2023-11-18T08:34:03;8.32;;;2.10;;
76536;SDS011;65381;51.254;15.592;2023-11-18T08:36:32;10.88;;;4.60;;
76536;SDS011;65381;51.254;15.592;2023-11-18T08:39:01;110.85;;;88.25;;
76536;SDS011;65381;51.254;15.592;2023-11-18T08:41:30;227.23;;;199.82;;
76536;SDS011;65381;51.254;15.592;2023-11-18T08:43:58;248.13;;;221.15;;
76536;SDS011;65381;51.254;15.592;2023-11-18T08:46:49;155.77;;;131.52;;
76536;SDS011;65381;51.254;15.592;2023-11-18T08:49:19;206.68;;;176.65;;
76536;SDS011;65381;51.254;15.592;2023-11-18T08:51:50;197.80;;;166.82;;
76536;SDS011;65381;51.254;15.592;2023-11-18T08:54:24;172.75;;;148.13;;
76536;SDS011;65381;51.254;15.592;2023-11-18T08:57:17;153.48;;;136.13;;
76536;SDS011;65381;51.254;15.592;2023-11-18T08:59:54;127.50;;;113.78;;
76536;SDS011;65381;51.254;15.592;2023-11-18T09:02:26;87.95;;;76.95;;
76536;SDS011;65381;51.254;15.592;2023-11-18T09:05:04;91.68;;;81.88;;
76536;SDS011;65381;51.254;15.592;2023-11-18T09:07:40;118.47;;;103.20;;
76536;SDS011;65381;51.254;15.592;2023-11-18T09:10:10;69.50;;;61.92;;
76536;SDS011;65381;51.254;15.592;2023-11-18T09:12:40;67.68;;;61.08;;
76536;SDS011;65381;51.254;15.592;2023-11-18T09:15:14;127.28;;;110.80;;
76536;SDS011;65381;51.254;15.592;2023-11-18T09:17:53;133.93;;;119.20;;
76536;SDS011;65381;51.254;15.592;2023-11-18T09:20:23;141.95;;;126.40;;
76536;SDS011;65381;51.254;15.592;2023-11-18T09:22:51;82.88;;;71.10;;
76536;SDS011;65381;51.254;15.592;2023-11-18T09:25:23;122.85;;;106.90;;
76536;SDS011;65381;51.254;15.592;2023-11-18T09:27:51;158.30;;;133.15;;
76536;SDS011;65381;51.254;15.592;2023-11-18T09:30:19;119.38;;;105.47;;
76536;SDS011;65381;51.254;15.592;2023-11-18T09:32:47;153.40;;;134.40;;
76536;SDS011;65381;51.254;15.592;2023-11-18T09:35:15;167.30;;;140.38;;
76536;SDS011;65381;51.254;15.592;2023-11-18T09:37:45;165.05;;;142.48;;
76536;SDS011;65381;51.254;15.592;2023-11-18T09:40:15;107.18;;;95.43;;
76536;SDS011;65381;51.254;15.592;2023-11-18T09:42:45;80.00;;;71.45;;
76536;SDS011;65381;51.254;15.592;2023-11-18T09:45:14;116.57;;;101.85;;
76536;SDS011;65381;51.254;15.592;2023-11-18T09:47:47;33.15;;;30.08;;
76536;SDS011;65381;51.254;15.592;2023-11-18T09:50:17;16.40;;;14.77;;
76536;SDS011;65381;51.254;15.592;2023-11-18T09:52:49;15.07;;;9.77;;
76536;SDS011;65381;51.254;15.592;2023-11-18T09:55:26;10.85;;;5.85;;
76536;SDS011;65381;51.254;15.592;2023-11-18T09:58:04;35.22;;;31.38;;
76536;SDS011;65381;51.254;15.592;2023-11-18T10:03:10;106.28;;;94.82;;
76536;SDS011;65381;51.254;15.592;2023-11-18T10:05:43;125.97;;;111.82;;
76536;SDS011;65381;51.254;15.592;2023-11-18T10:08:13;136.10;;;114.53;;
76536;SDS011;65381;51.254;15.592;2023-11-18T10:10:44;100.45;;;85.88;;
76536;SDS011;65381;51.254;15.592;2023-11-18T10:13:13;95.00;;;84.57;;
76536;SDS011;65381;51.254;15.592;2023-11-18T10:15:50;56.40;;;50.67;;
76536;SDS011;65381;51.254;15.592;2023-11-18T10:18:21;52.03;;;46.50;;
76536;SDS011;65381;51.254;15.592;2023-11-18T10:20:51;25.30;;;23.13;;
76536;SDS011;65381;51.254;15.592;2023-11-18T10:23:21;11.00;;;9.10;;
76536;SDS011;65381;51.254;15.592;2023-11-18T10:25:51;13.27;;;10.98;;
76536;SDS011;65381;51.254;15.592;2023-11-18T10:30:59;94.03;;;81.40;;
76536;SDS011;65381;51.254;15.592;2023-11-18T10:33:37;61.92;;;55.38;;
76536;SDS011;65381;51.254;15.592;2023-11-18T10:36:19;123.55;;;104.20;;
76536;SDS011;65381;51.254;15.592;2023-11-18T10:38:53;140.13;;;121.45;;
76536;SDS011;65381;51.254;15.592;2023-11-18T10:41:23;157.55;;;132.95;;
76536;SDS011;65381;51.254;15.592;2023-11-18T10:44:06;157.05;;;131.05;;
76536;SDS011;65381;51.254;15.592;2023-11-18T10:46:36;151.35;;;131.43;;
76536;SDS011;65381;51.254;15.592;2023-11-18T10:49:05;154.98;;;130.43;;
76536;SDS011;65381;51.254;15.592;2023-11-18T10:51:38;159.38;;;137.68;;
76536;SDS011;65381;51.254;15.592;2023-11-18T10:54:09;147.48;;;124.32;;
76536;SDS011;65381;51.254;15.592;2023-11-18T10:56:48;153.30;;;131.35;;
76536;SDS011;65381;51.254;15.592;2023-11-18T10:59:18;169.15;;;140.95;;
76536;SDS011;65381;51.254;15.592;2023-11-18T11:01:47;174.90;;;145.88;;
76536;SDS011;65381;51.254;15.592;2023-11-18T11:04:19;171.00;;;143.68;;
76536;SDS011;65381;51.254;15.592;2023-11-18T11:06:51;159.07;;;132.65;;
76536;SDS011;65381;51.254;15.592;2023-11-18T11:09:22;166.20;;;138.23;;
76536;SDS011;65381;51.254;15.592;2023-11-18T11:11:56;164.98;;;138.65;;
76536;SDS011;65381;51.254;15.592;2023-11-18T11:14:37;162.55;;;134.05;;
76536;SDS011;65381;51.254;15.592;2023-11-18T11:17:17;171.98;;;142.00;;
76536;SDS011;65381;51.254;15.592;2023-11-18T11:20:05;186.75;;;148.75;;
76536;SDS011;65381;51.254;15.592;2023-11-18T11:22:58;189.25;;;153.43;;
76536;SDS011;65381;51.254;15.592;2023-11-18T11:28:40;167.50;;;140.32;;
76536;SDS011;65381;51.254;15.592;2023-11-18T11:31:20;155.05;;;131.55;;
76536;SDS011;65381;51.254;15.592;2023-11-18T11:34:02;99.10;;;84.70;;
76536;SDS011;65381;51.254;15.592;2023-11-18T11:36:37;75.45;;;65.07;;
76536;SDS011;65381;51.254;15.592;2023-11-18T11:39:12;59.08;;;52.92;;
76536;SDS011;65381;51.254;15.592;2023-11-18T11:41:51;83.30;;;73.70;;
76536;SDS011;65381;51.254;15.592;2023-11-18T11:44:24;39.10;;;35.45;;
76536;SDS011;65381;51.254;15.592;2023-11-18T11:46:59;38.92;;;35.28;;
76536;SDS011;65381;51.254;15.592;2023-11-18T11:49:34;35.22;;;29.05;;
76536;SDS011;65381;51.254;15.592;2023-11-18T11:55:01;0.77;;;0.22;;
76536;SDS011;65381;51.254;15.592;2023-11-18T11:57:34;48.72;;;42.53;;
76536;SDS011;65381;51.254;15.592;2023-11-18T12:00:09;2.03;;;0.45;;
76536;SDS011;65381;51.254;15.592;2023-11-18T12:02:48;38.63;;;32.05;;
76536;SDS011;65381;51.254;15.592;2023-11-18T12:05:18;20.33;;;17.08;;
76536;SDS011;65381;51.254;15.592;2023-11-18T12:07:47;75.68;;;60.53;;
76536;SDS011;65381;51.254;15.592;2023-11-18T12:10:17;5.18;;;4.68;;
76536;SDS011;65381;51.254;15.592;2023-11-18T12:12:48;6.82;;;4.80;;
76536;SDS011;65381;51.254;15.592;2023-11-18T12:15:47;34.00;;;30.60;;
76536;SDS011;65381;51.254;15.592;2023-11-18T12:18:23;110.68;;;98.80;;
76536;SDS011;65381;51.254;15.592;2023-11-18T12:20:53;47.70;;;39.95;;
76536;SDS011;65381;51.254;15.592;2023-11-18T12:23:24;14.85;;;8.57;;
76536;SDS011;65381;51.254;15.592;2023-11-18T12:25:53;4.47;;;0.55;;
76536;SDS011;65381;51.254;15.592;2023-11-18T12:28:30;3.70;;;0.68;;
76536;SDS011;65381;51.254;15.592;2023-11-18T12:31:03;4.15;;;0.57;;
76536;SDS011;65381;51.254;15.592;2023-11-18T12:42:09;3.38;;;0.47;;
76536;SDS011;65381;51.254;15.592;2023-11-18T12:44:55;4.20;;;0.75;;
76536;SDS011;65381;51.254;15.592;2023-11-18T12:47:29;2.70;;;0.88;;
76536;SDS011;65381;51.254;15.592;2023-11-18T12:50:07;3.55;;;0.82;;
76536;SDS011;65381;51.254;15.592;2023-11-18T12:52:45;3.55;;;0.93;;
76536;SDS011;65381;51.254;15.592;2023-11-18T12:55:15;25.67;;;5.72;;
76536;SDS011;65381;51.254;15.592;2023-11-18T12:57:47;3.40;;;0.55;;
76536;SDS011;65381;51.254;15.592;2023-11-18T13:00:16;4.25;;;0.50;;
76536;SDS011;65381;51.254;15.592;2023-11-18T13:02:55;4.22;;;0.70;;
76536;SDS011;65381;51.254;15.592;2023-11-18T13:05:27;4.72;;;0.70;;
76536;SDS011;65381;51.254;15.592;2023-11-18T13:08:00;3.72;;;0.60;;
76536;SDS011;65381;51.254;15.592;2023-11-18T13:10:34;5.13;;;1.45;;
76536;SDS011;65381;51.254;15.592;2023-11-18T13:13:04;2.65;;;0.30;;
76536;SDS011;65381;51.254;15.592;2023-11-18T13:15:37;3.33;;;0.55;;
76536;SDS011;65381;51.254;15.592;2023-11-18T13:18:05;2.67;;;0.47;;
76536;SDS011;65381;51.254;15.592;2023-11-18T13:20:35;2.08;;;0.95;;
76536;SDS011;65381;51.254;15.592;2023-11-18T13:23:08;4.22;;;1.33;;
76536;SDS011;65381;51.254;15.592;2023-11-18T13:25:37;2.92;;;0.88;;
76536;SDS011;65381;51.254;15.592;2023-11-18T13:28:09;1.90;;;0.25;;
76536;SDS011;65381;51.254;15.592;2023-11-18T13:30:39;3.80;;;0.50;;
76536;SDS011;65381;51.254;15.592;2023-11-18T13:33:09;2.50;;;0.85;;
76536;SDS011;65381;51.254;15.592;2023-11-18T13:35:40;1.55;;;0.20;;
76536;SDS011;65381;51.254;15.592;2023-11-18T13:38:11;2.28;;;1.65;;
76536;SDS011;65381;51.254;15.592;2023-11-18T13:40:43;1.58;;;0.32;;
76536;SDS011;65381;51.254;15.592;2023-11-18T13:43:14;1.45;;;0.40;;
76536;SDS011;65381;51.254;15.592;2023-11-18T13:45:49;2.22;;;0.50;;
76536;SDS011;65381;51.254;15.592;2023-11-18T13:48:21;0.60;;;0.10;;
76536;SDS011;65381;51.254;15.592;2023-11-18T13:50:52;1.83;;;0.30;;
76536;SDS011;65381;51.254;15.592;2023-11-18T13:53:21;2.70;;;0.40;;
76536;SDS011;65381;51.254;15.592;2023-11-18T13:55:50;2.63;;;0.50;;
76536;SDS011;65381;51.254;15.592;2023-11-18T13:58:19;2.47;;;0.80;;
76536;SDS011;65381;51.254;15.592;2023-11-18T14:00:48;4.65;;;0.57;;
76536;SDS011;65381;51.254;15.592;2023-11-18T14:03:20;4.03;;;0.50;;
76536;SDS011;65381;51.254;15.592;2023-11-18T14:05:52;2.38;;;0.30;;
76536;SDS011;65381;51.254;15.592;2023-11-18T14:08:20;3.53;;;0.70;;
76536;SDS011;65381;51.254;15.592;2023-11-18T14:10:49;3.03;;;0.52;;
76536;SDS011;65381;51.254;15.592;2023-11-18T14:13:29;3.75;;;0.65;;
76536;SDS011;65381;51.254;15.592;2023-11-18T14:16:01;5.47;;;2.90;;
76536;SDS011;65381;51.254;15.592;2023-11-18T14:21:05;3.40;;;0.43;;
76536;SDS011;65381;51.254;15.592;2023-11-18T14:23:34;2.30;;;0.38;;
76536;SDS011;65381;51.254;15.592;2023-11-18T14:26:05;2.35;;;0.30;;
76536;SDS011;65381;51.254;15.592;2023-11-18T14:28:35;1.67;;;0.28;;
76536;SDS011;65381;51.254;15.592;2023-11-18T14:31:05;3.63;;;0.93;;
76536;SDS011;65381;51.254;15.592;2023-11-18T14:33:35;4.20;;;1.05;;
76536;SDS011;65381;51.254;15.592;2023-11-18T14:36:04;3.00;;;0.55;;
76536;SDS011;65381;51.254;15.592;2023-11-18T14:38:34;0.95;;;0.13;;
76536;SDS011;65381;51.254;15.592;2023-11-18T14:41:05;2.13;;;0.55;;
76536;SDS011;65381;51.254;15.592;2023-11-18T14:43:35;1.55;;;0.20;;
76536;SDS011;65381;51.254;15.592;2023-11-18T14:46:03;0.98;;;0.55;;
76536;SDS011;65381;51.254;15.592;2023-11-18T14:48:33;1.88;;;0.25;;
76536;SDS011;65381;51.254;15.592;2023-11-18T14:51:03;2.13;;;0.30;;
76536;SDS011;65381;51.254;15.592;2023-11-18T14:53:32;1.38;;;0.57;;
76536;SDS011;65381;51.254;15.592;2023-11-18T14:56:02;1.30;;;0.30;;
76536;SDS011;65381;51.254;15.592;2023-11-18T15:01:07;7.68;;;2.15;;
76536;SDS011;65381;51.254;15.592;2023-11-18T15:03:38;1.77;;;0.40;;
76536;SDS011;65381;51.254;15.592;2023-11-18T15:06:08;1.85;;;0.32;;
76536;SDS011;65381;51.254;15.592;2023-11-18T15:08:41;1.50;;;1.25;;
76536;SDS011;65381;51.254;15.592;2023-11-18T15:11:12;2.50;;;1.15;;
76536;SDS011;65381;51.254;15.592;2023-11-18T15:13:47;2.25;;;0.35;;
76536;SDS011;65381;51.254;15.592;2023-11-18T15:16:17;2.20;;;0.32;;
76536;SDS011;65381;51.254;15.592;2023-11-18T15:18:46;1.98;;;0.40;;
76536;SDS011;65381;51.254;15.592;2023-11-18T15:21:15;1.35;;;0.55;;